Madison, SD

5:58 AM CDT on October 20, 2017 (GMT -0500)
Madison Municipal

Weather History for KMDS - January, 2013

Change the Weather History Date:

Friday, January 11, 2013

  Actual Average Record
Temperature  
Mean Temperature 24 °F -  
Max Temperature 33 °F 18 °F 35 °F (2012)
Min Temperature 14 °F -1 °F -5 °F (2011)
Degree Days  
Heating Degree Days 42    
Moisture  
Dew Point 29 °F    
Average Humidity 100    
Maximum Humidity 100    
Minimum Humidity 100    
Precipitation  
Precipitation 0.19 in - - ()
Sea Level Pressure  
Sea Level Pressure 29.43 in    
Wind  
Wind Speed 15 mph (SW)    
Max Wind Speed 30 mph    
Max Gust Speed 41 mph    
Visibility 2 miles    
Events Fog , Rain , Snow    
Averages and records for this station are not official NWS values.
T = Trace of Precipitation, MM = Missing Value Source: NWS Daily Summary

Daily Weather History Graph

Daily Weather History Graph

Search for Another Location

Airport or City:

Trip Planner

Search our weather history database for the weather conditions in past years. The results will help you decide how hot, cold, wet, or windy it might be!

Date:

Astronomy

Jan. 11, 2013 Rise Set
Actual Time 8:01 AM CST 5:11 PM CST
Civil Twilight 7:29 AM CST 5:44 PM CST
Nautical Twilight 6:53 AM CST 6:19 PM CST
Astronomical Twilight 6:18 AM CST 6:54 PM CST
Moon 7:34 AM CST (1/11) 5:33 PM CST (1/11)
Length of Visible Light 10h 14m
Length of Day
9h 10m
Waning Crescent, 0% of the Moon is Illuminated
Jan 11
Waning Crescent
Jan 11
New
Jan 18
First Quarter
Jan 26
Full
Feb 3
Last Quarter

Hourly Weather History & Observations

Time (CST) Temp. Windchill Dew Point Humidity Pressure Visibility Wind Dir Wind Speed Gust Speed Precip Events Conditions
12:00 AM 32.0 °F 20.1 °F 32.0 °F 100% 29.55 in 2.0 mi South 19.6 mph - N/A   Overcast
12:20 AM 32.0 °F 19.8 °F 32.0 °F 100% 29.54 in 0.5 mi South 20.7 mph - N/A Fog Fog
12:40 AM 32.0 °F 20.1 °F 32.0 °F 100% 29.53 in 0.2 mi South 19.6 mph 25.3 mph N/A Fog Fog
1:00 AM 32.0 °F 20.1 °F 32.0 °F 100% 29.52 in 0.2 mi South 19.6 mph - N/A Fog Fog
1:20 AM 32.0 °F 21.2 °F 32.0 °F 100% 29.51 in 0.2 mi South 16.1 mph - N/A Fog Fog
1:40 AM 32.0 °F 21.6 °F 32.0 °F 100% 29.52 in 0.2 mi South 15.0 mph - N/A Fog Fog
2:00 AM 32.0 °F 21.6 °F 32.0 °F 100% 29.51 in 0.2 mi South 15.0 mph - N/A Fog Fog
2:20 AM 32.0 °F 21.2 °F 32.0 °F 100% 29.51 in 0.2 mi South 16.1 mph 21.9 mph N/A Fog Fog
2:40 AM 32.0 °F 20.8 °F 32.0 °F 100% 29.50 in 0.2 mi South 17.3 mph - N/A Fog Fog
3:00 AM 32.0 °F 21.6 °F 32.0 °F 100% 29.49 in 0.2 mi South 15.0 mph - N/A Fog Fog
3:20 AM 32.0 °F 21.2 °F 32.0 °F 100% 29.49 in 0.2 mi SSW 16.1 mph - N/A Fog Fog
3:40 AM 32.0 °F 21.2 °F 32.0 °F 100% 29.48 in 0.2 mi South 16.1 mph - N/A Fog Fog
4:00 AM 32.0 °F 21.2 °F 32.0 °F 100% 29.47 in 0.2 mi SSW 16.1 mph - N/A Fog Fog
4:20 AM 32.0 °F 22.1 °F 32.0 °F 100% 29.46 in 0.2 mi South 13.8 mph - N/A Fog Fog
4:40 AM 32.0 °F 23.6 °F 32.0 °F 100% 29.46 in 0.2 mi SSW 10.4 mph - N/A Fog Fog
5:00 AM 32.0 °F 23.0 °F 32.0 °F 100% 29.45 in 0.2 mi SSW 11.5 mph - N/A Fog Fog
5:20 AM 32.0 °F 24.2 °F 32.0 °F 100% 29.44 in 0.2 mi SSW 9.2 mph - N/A Fog Fog
5:40 AM 32.0 °F 23.0 °F 32.0 °F 100% 29.44 in 0.2 mi South 11.5 mph - N/A Fog Fog
6:00 AM 32.0 °F 23.0 °F 32.0 °F 100% 29.43 in 0.2 mi South 11.5 mph - N/A Fog Fog
6:20 AM 32.0 °F 23.6 °F 32.0 °F 100% 29.43 in 0.2 mi South 10.4 mph - N/A Fog Fog
6:40 AM 32.0 °F 24.8 °F 32.0 °F 100% 29.44 in 0.2 mi SSW 8.1 mph - N/A Fog Fog
7:00 AM 32.0 °F 25.6 °F 32.0 °F 100% 29.43 in 0.2 mi South 6.9 mph - N/A Fog Fog
7:20 AM 32.0 °F 24.2 °F 32.0 °F 100% 29.44 in 0.2 mi South 9.2 mph - N/A Fog Fog
7:40 AM 32.0 °F 24.2 °F 32.0 °F 100% 29.44 in 0.2 mi South 9.2 mph - N/A Fog Fog
8:00 AM 32.0 °F 22.5 °F 32.0 °F 100% 29.43 in 0.2 mi South 12.7 mph - N/A Fog Fog
8:20 AM 32.0 °F 23.0 °F 32.0 °F 100% 29.44 in 0.2 mi South 11.5 mph - N/A Fog Fog
8:40 AM 32.0 °F 23.6 °F 32.0 °F 100% 29.43 in 0.2 mi South 10.4 mph - N/A Fog Fog
9:00 AM 32.0 °F 23.0 °F 32.0 °F 100% 29.42 in 0.2 mi South 11.5 mph - N/A Fog Fog
9:20 AM 32.0 °F 23.6 °F 32.0 °F 100% 29.41 in 0.2 mi South 10.4 mph - N/A Fog Fog
9:40 AM 32.0 °F 23.6 °F 32.0 °F 100% 29.40 in 0.2 mi South 10.4 mph - N/A Fog Fog
10:00 AM 32.0 °F 23.6 °F 32.0 °F 100% 29.40 in 0.2 mi South 10.4 mph - N/A Fog Fog
10:20 AM 32.0 °F 22.5 °F 32.0 °F 100% 29.41 in 0.2 mi South 12.7 mph - N/A Fog Fog
10:40 AM 32.0 °F 22.1 °F 32.0 °F 100% 29.41 in 0.2 mi South 13.8 mph - N/A Fog Fog
11:00 AM 32.0 °F 23.0 °F 32.0 °F 100% 29.40 in 0.5 mi South 11.5 mph - N/A Fog Fog
11:20 AM 32.0 °F 22.1 °F 32.0 °F 100% 29.40 in 1.2 mi SSW 13.8 mph - N/A   Overcast
12:00 PM 32.0 °F 22.5 °F 32.0 °F 100% 29.37 in 1.2 mi South 12.7 mph - N/A   Overcast
12:20 PM 32.0 °F 23.0 °F 32.0 °F 100% 29.36 in 1.2 mi South 11.5 mph - N/A   Overcast
12:25 PM 32.0 °F 23.0 °F 32.0 °F 100% 29.36 in 1.2 mi South 11.5 mph - N/A   Overcast
1:00 PM 32.0 °F 24.2 °F 32.0 °F 100% 29.34 in 0.8 mi SSW 9.2 mph - N/A   Overcast
1:20 PM 33.8 °F 27.0 °F 33.8 °F 100% 29.34 in 0.8 mi SSW 8.1 mph - N/A   Overcast
1:40 PM 32.0 °F 24.8 °F 32.0 °F 100% 29.33 in 0.2 mi South 8.1 mph - N/A Fog Fog
2:00 PM 32.0 °F 24.8 °F 32.0 °F 100% 29.33 in 0.2 mi South 8.1 mph - N/A Fog Fog
2:20 PM 32.0 °F 25.6 °F 32.0 °F 100% 29.33 in 0.2 mi SSW 6.9 mph - N/A Fog Fog
2:40 PM 33.8 °F 29.6 °F 33.8 °F 100% 29.33 in 2.5 mi SSW 4.6 mph - N/A   Overcast
3:00 PM 33.8 °F 29.6 °F 33.8 °F 100% 29.34 in 0.5 mi SSW 4.6 mph - N/A Fog Fog
3:20 PM 33.8 °F 27.7 °F 33.8 °F 100% 29.33 in 0.2 mi SW 6.9 mph - N/A Fog Fog
3:40 PM 32.0 °F 24.8 °F 32.0 °F 100% 29.33 in 0.2 mi SW 8.1 mph - N/A Fog Fog
4:00 PM 32.0 °F 26.4 °F 32.0 °F 100% 29.33 in 0.8 mi West 5.8 mph - N/A   Overcast
4:20 PM 32.0 °F 25.6 °F 32.0 °F 100% 29.33 in 2.0 mi West 6.9 mph - N/A   Overcast
4:40 PM 32.0 °F 23.0 °F 32.0 °F 100% 29.33 in 1.8 mi WNW 11.5 mph - N/A   Overcast
5:00 PM 32.0 °F 22.1 °F 32.0 °F 100% 29.32 in 3.0 mi WNW 13.8 mph - N/A   Overcast
5:20 PM 32.0 °F 23.0 °F 32.0 °F 100% 29.35 in 4.0 mi West 11.5 mph - N/A   Overcast
5:40 PM 30.2 °F 18.9 °F 30.2 °F 100% 29.35 in 8.0 mi WNW 16.1 mph - N/A   Overcast
6:00 PM 28.4 °F 17.0 °F 28.4 °F 100% 29.36 in 10.0 mi WNW 15.0 mph 21.9 mph N/A   Overcast
6:20 PM 28.4 °F 15.8 °F 28.4 °F 100% 29.37 in 4.0 mi WNW 18.4 mph 21.9 mph N/A   Overcast
7:00 PM 26.6 °F 14.7 °F 26.6 °F 100% 29.39 in 3.0 mi WNW 15.0 mph - N/A Rain Light Freezing Rain
7:20 PM 28.4 °F 16.6 °F 28.4 °F 100% 29.40 in 5.0 mi WNW 16.1 mph - N/A Rain Light Freezing Rain
7:40 PM 26.6 °F 11.7 °F 26.6 °F 100% 29.41 in 4.0 mi WNW 24.2 mph - N/A   Overcast
8:00 PM 24.8 °F 9.6 °F 24.8 °F 100% 29.40 in 4.0 mi WNW 23.0 mph 39.1 mph N/A Rain Light Freezing Rain
8:20 PM 23.0 °F 7.6 °F 23.0 °F 100% 29.44 in 8.0 mi WNW 21.9 mph 28.8 mph N/A   Clear
8:40 PM 19.4 °F 0.5 °F 19.4 °F 100% 29.46 in 10.0 mi WNW 29.9 mph 35.7 mph N/A   Scattered Clouds
9:00 PM 19.4 °F 1.8 °F 19.4 °F 100% 29.46 in 8.0 mi WNW 25.3 mph 35.7 mph N/A   Scattered Clouds
9:20 PM 17.6 °F -1.6 °F 17.6 °F 100% 29.48 in 10.0 mi WNW 28.8 mph 39.1 mph N/A Snow Light Snow
9:40 PM 17.6 °F 0.5 °F 17.6 °F 100% 29.46 in 9.0 mi NW 21.9 mph 34.5 mph N/A   Overcast
10:00 PM 17.6 °F -1.0 °F 17.6 °F 100% 29.48 in 10.0 mi NW 26.5 mph 33.4 mph N/A Snow Light Snow
10:20 PM 15.8 °F -3.1 °F 15.8 °F 100% 29.47 in 10.0 mi NW 25.3 mph 32.2 mph N/A Snow Light Snow
10:40 PM 15.8 °F -4.4 °F 15.8 °F 100% 29.48 in 10.0 mi WNW 29.9 mph 41.4 mph N/A   Overcast
11:00 PM 15.8 °F -1.5 °F 15.8 °F 100% 29.51 in 4.0 mi WNW 20.7 mph 40.3 mph 0.04 in Snow Light Snow
11:20 PM 14.0 °F -6.2 °F 14.0 °F 100% 29.54 in 4.0 mi WNW 27.6 mph 36.8 mph 0.10 in Snow Light Snow
11:40 PM 14.0 °F -6.2 °F 14.0 °F 100% 29.55 in 4.0 mi WNW 27.6 mph 36.8 mph 0.19 in Snow Light Snow